createdAt,value
2023-01-05T00:01:49.356Z,3.9
2023-01-05T00:06:58.352Z,3.9
2023-01-05T00:12:05.892Z,3.9
2023-01-05T00:17:12.813Z,3.8
2023-01-05T00:22:34.833Z,3.8
2023-01-05T00:27:49.414Z,3.8
2023-01-05T00:33:11.983Z,3.8
2023-01-05T00:38:02.737Z,3.9
2023-01-05T00:42:55.236Z,3.9
2023-01-05T00:47:47.032Z,3.9
2023-01-05T00:52:54.067Z,3.9
2023-01-05T00:57:45.705Z,4
2023-01-05T01:02:38.369Z,4.1
2023-01-05T01:07:45.593Z,4.1
2023-01-05T01:12:52.014Z,4.1
2023-01-05T01:18:00.057Z,4.2
2023-01-05T01:23:21.146Z,4.3
2023-01-05T01:28:43.789Z,4.3
2023-01-05T01:33:35.827Z,4.3
2023-01-05T01:38:26.332Z,4.3
2023-01-05T01:43:33.177Z,4.3
2023-01-05T01:48:41.092Z,4.4
2023-01-05T01:54:03.687Z,4.4
2023-01-05T01:59:10.538Z,4.4
2023-01-05T02:04:34.881Z,4.4
2023-01-05T02:09:26.487Z,4.4
2023-01-05T02:18:56.714Z,4.4
2023-01-05T02:23:54.808Z,4.4
2023-01-05T02:29:01.809Z,4.4
2023-01-05T02:33:53.200Z,4.4
2023-01-05T02:39:04.705Z,4.4
2023-01-05T02:43:41.464Z,4.4
2023-01-05T02:48:16.933Z,4.4
2023-01-05T02:53:08.745Z,4.4
2023-01-05T02:57:59.566Z,4.4
2023-01-05T03:03:08.637Z,4.4
2023-01-05T03:07:44.820Z,4.3
2023-01-05T03:12:20.073Z,4.4
2023-01-05T03:16:55.565Z,4.3
2023-01-05T03:22:02.874Z,4.3
2023-01-05T03:26:54.007Z,4.3
2023-01-05T03:32:00.996Z,4.3
2023-01-05T03:37:08.618Z,4.3
2023-01-05T03:42:03.269Z,4.3
2023-01-05T03:46:53.559Z,4.3
2023-01-05T03:51:44.982Z,4.2
2023-01-05T03:56:21.552Z,4.1
2023-01-05T04:01:12.648Z,4.1
2023-01-05T04:06:09.428Z,4
2023-01-05T04:11:16.328Z,3.9
2023-01-05T04:16:08.375Z,3.8
2023-01-05T04:20:59.888Z,3.6
2023-01-05T04:26:11.473Z,3.4
2023-01-05T04:31:19.003Z,3.3
2023-01-05T04:36:26.015Z,3.1
2023-01-05T04:41:33.086Z,2.9
2023-01-05T04:46:40.945Z,2.7
2023-01-05T04:51:47.941Z,2.6
2023-01-05T04:56:39.730Z,2.4
2023-01-05T05:01:52.196Z,2.3
2023-01-05T05:06:45.313Z,2.1
2023-01-05T05:11:21.794Z,2
2023-01-05T05:16:28.883Z,1.9
2023-01-05T05:21:05.481Z,1.8
2023-01-05T05:25:41.778Z,1.9
2023-01-05T05:30:33.831Z,1.9
2023-01-05T05:35:41.046Z,1.9
2023-01-05T05:40:35.041Z,1.9
2023-01-05T05:45:10.532Z,2
2023-01-05T05:50:08.761Z,2.1
2023-01-05T05:54:59.303Z,2.1
2023-01-05T06:00:14.443Z,2.1
2023-01-05T06:05:22.824Z,2.1
2023-01-05T06:10:45.581Z,2.1
2023-01-05T06:16:09.229Z,2.2
2023-01-05T06:21:18.563Z,2.2
2023-01-05T06:26:25.747Z,2.3
2023-01-05T06:31:48.527Z,2.4
2023-01-05T06:37:17.007Z,2.6
2023-01-05T06:42:40.240Z,3.3
2023-01-05T06:48:03.437Z,5.6
2023-01-05T06:53:28.552Z,9.4
2023-01-05T06:58:51.775Z,13.2
2023-01-05T07:04:15.009Z,16.9
2023-01-05T07:09:42.035Z,20.7
2023-01-05T07:15:10.750Z,24.1
2023-01-05T07:20:34.282Z,27.4
2023-01-05T07:25:57.382Z,30.6
2023-01-05T07:31:25.786Z,33.5
2023-01-05T07:36:57.447Z,36.3
2023-01-05T07:42:20.227Z,39.4
2023-01-05T07:47:27.360Z,40.9
2023-01-05T07:52:41.789Z,35.8
2023-01-05T07:58:04.803Z,32.4
2023-01-05T08:03:28.581Z,39.6
2023-01-05T08:08:41.086Z,44.8
2023-01-05T08:14:04.048Z,38.9
2023-01-05T08:19:31.123Z,33
2023-01-05T08:24:56.199Z,36
2023-01-05T08:30:20.442Z,34.1
2023-01-05T08:35:29.809Z,35.1
2023-01-05T08:40:52.264Z,36.1
2023-01-05T08:46:19.562Z,38.2
2023-01-05T08:51:45.623Z,39.5
2023-01-05T08:57:12.728Z,40.6
2023-01-05T09:02:42.379Z,42
2023-01-05T09:08:05.146Z,43.1
2023-01-05T09:13:28.521Z,44.5
2023-01-05T09:19:21.187Z,46.1
2023-01-05T09:24:28.441Z,47
2023-01-05T09:29:36.006Z,47.5
2023-01-05T09:35:06.587Z,47.1
2023-01-05T09:40:32.291Z,46.9
2023-01-05T09:45:56.771Z,47.2
2023-01-05T09:51:20.679Z,47.7
2023-01-05T09:57:23.775Z,47.5
2023-01-05T10:02:48.811Z,47.7
2023-01-05T10:08:52.821Z,49
2023-01-05T10:14:15.703Z,47.7
2023-01-05T10:20:18.107Z,46.9
2023-01-05T10:25:47.322Z,46.8
2023-01-05T10:31:53.165Z,48.1
2023-01-05T10:39:10.387Z,50.6
2023-01-05T10:44:33.934Z,52.2
2023-01-05T10:50:22.781Z,52.4
2023-01-05T10:55:51.494Z,51.1
2023-01-05T11:01:20.435Z,53.1
2023-01-05T11:07:28.638Z,53.4
2023-01-05T11:12:52.859Z,52.8
2023-01-05T11:18:20.740Z,51.3
2023-01-05T11:23:47.286Z,52.6
2023-01-05T11:34:15.511Z,49.6
2023-01-05T11:39:44.156Z,50.6
2023-01-05T11:45:11.599Z,47.4
2023-01-05T11:50:43.337Z,49
2023-01-05T11:55:35.354Z,56.8
2023-01-05T12:00:59.545Z,59.2
2023-01-05T12:06:08.754Z,47.1
2023-01-05T12:11:20.919Z,44.7
2023-01-05T12:16:52.562Z,48.4
2023-01-05T12:22:02.698Z,47.8
2023-01-05T12:27:10.309Z,45.8
2023-01-05T12:36:39.629Z,43.3
2023-01-05T12:41:52.895Z,41.4
2023-01-05T12:47:18.037Z,40.1
2023-01-05T12:52:26.458Z,39.2
2023-01-05T12:57:18.615Z,39.1
2023-01-05T13:02:42.324Z,42.6
2023-01-05T13:07:48.038Z,45.9
2023-01-05T13:12:42.928Z,48.4
2023-01-05T13:17:55.159Z,49.6
2023-01-05T13:22:46.681Z,49.8
2023-01-05T13:28:10.250Z,49.1
2023-01-05T13:33:23.345Z,47.7
2023-01-05T13:38:46.006Z,46.5
2023-01-05T13:44:09.350Z,46.1
2023-01-05T13:49:55.410Z,45.2
2023-01-05T13:55:28.329Z,44.3
2023-01-05T14:01:20.590Z,43.2
2023-01-05T14:06:44.698Z,41.6
2023-01-05T14:12:07.498Z,39.8
2023-01-05T14:17:15.635Z,38.2
2023-01-05T14:22:41.872Z,36.8
2023-01-05T14:27:51.776Z,35.1
2023-01-05T14:33:15.507Z,33.3
2023-01-05T14:38:23.299Z,31.3
2023-01-05T14:43:36.542Z,29.6
2023-01-05T14:48:44.620Z,27.6
2023-01-05T14:54:08.168Z,25.7
2023-01-05T14:59:56.479Z,23.5
2023-01-05T15:05:24.179Z,21.3
2023-01-05T15:10:47.390Z,19.4
2023-01-05T15:16:15.865Z,17.9
2023-01-05T15:21:24.452Z,16.6
2023-01-05T15:27:06.590Z,15.3
2023-01-05T15:32:14.196Z,14.4
2023-01-05T15:37:22.247Z,13.5
2023-01-05T15:42:30.807Z,12.8
2023-01-05T15:47:38.026Z,12.1
2023-01-05T15:52:46.404Z,11.5
2023-01-05T15:57:53.914Z,11
2023-01-05T16:03:02.116Z,10.4
2023-01-05T16:08:11.324Z,10
2023-01-05T16:13:35.009Z,9.6
2023-01-05T16:18:55.794Z,9.1
2023-01-05T16:24:07.589Z,8.6
2023-01-05T16:29:15.759Z,8.3
2023-01-05T16:34:39.168Z,7.9
2023-01-05T16:39:47.426Z,7.7
2023-01-05T16:44:40.267Z,7.4
2023-01-05T16:49:57.540Z,7.3
2023-01-05T16:55:23.621Z,7.1
2023-01-05T17:00:35.819Z,6.9
2023-01-05T17:05:43.007Z,6.8
2023-01-05T17:10:50.160Z,6.6
2023-01-05T17:15:58.721Z,6.4
2023-01-05T17:21:07.556Z,6.4
2023-01-05T17:26:31.378Z,6.2
2023-01-05T17:31:39.815Z,6.1
2023-01-05T17:36:32.454Z,5.9
2023-01-05T17:41:41.694Z,5.8
2023-01-05T17:46:18.598Z,5.8
2023-01-05T17:51:11.039Z,5.8
2023-01-05T17:56:37.388Z,5.8
2023-01-05T18:02:01.635Z,5.9
2023-01-05T18:07:26.332Z,5.9
2023-01-05T18:12:50.757Z,6.1
2023-01-05T18:18:14.810Z,6.2
2023-01-05T18:23:38.226Z,6.3
2023-01-05T18:29:01.547Z,6.3
2023-01-05T18:34:26.154Z,6.4
2023-01-05T18:39:59.393Z,6.4
2023-01-05T18:45:40.195Z,6.4
2023-01-05T18:50:50.221Z,6.3
2023-01-05T18:56:15.078Z,6.3
2023-01-05T19:01:23.545Z,6.1
2023-01-05T19:06:50.135Z,6.1
2023-01-05T19:12:13.019Z,5.9
2023-01-05T19:17:37.057Z,5.8
2023-01-05T19:22:45.466Z,5.6
2023-01-05T19:27:54.804Z,5.4
2023-01-05T19:33:18.542Z,5.3
2023-01-05T19:38:42.516Z,5.3
2023-01-05T19:44:07.469Z,5.1
2023-01-05T19:49:34.043Z,5
2023-01-05T19:54:42.578Z,4.9
2023-01-05T20:00:07.926Z,4.8
2023-01-05T20:05:16.095Z,4.8
2023-01-05T20:10:24.951Z,4.8
2023-01-05T20:15:58.595Z,4.8
2023-01-05T20:20:49.668Z,4.8
2023-01-05T20:25:59.565Z,4.7
2023-01-05T20:31:07.586Z,4.6
2023-01-05T20:36:30.518Z,4.6
2023-01-05T20:41:55.279Z,4.4
2023-01-05T20:47:26.165Z,4.3
2023-01-05T20:52:54.642Z,4.1
2023-01-05T20:58:17.715Z,3.9
2023-01-05T21:04:09.837Z,3.8
2023-01-05T21:09:04.243Z,3.6
2023-01-05T21:14:45.764Z,3.4
2023-01-05T21:19:54.040Z,3.2
2023-01-05T21:25:16.398Z,3
2023-01-05T21:30:58.815Z,2.9
2023-01-05T21:36:06.630Z,2.9
2023-01-05T21:41:55.812Z,2.8
2023-01-05T21:47:05.168Z,2.7
2023-01-05T21:52:13.171Z,2.6
2023-01-05T21:57:20.506Z,2.6
2023-01-05T22:02:28.644Z,2.7
2023-01-05T22:07:36.876Z,2.7
2023-01-05T22:12:44.776Z,2.7
2023-01-05T22:18:08.850Z,2.8
2023-01-05T22:23:31.716Z,2.8
2023-01-05T22:28:39.212Z,2.9
2023-01-05T22:33:48.803Z,2.9
2023-01-05T22:38:56.395Z,2.9
2023-01-05T22:43:48.191Z,2.9
2023-01-05T22:48:55.523Z,2.9
2023-01-05T22:54:18.798Z,2.9
2023-01-05T22:59:26.723Z,2.9
2023-01-05T23:04:36.066Z,2.9
2023-01-05T23:08:56.948Z,2.8
2023-01-05T23:14:03.466Z,2.8
2023-01-05T23:19:26.410Z,2.7
2023-01-05T23:24:34.232Z,2.7
2023-01-05T23:29:43.255Z,2.6
2023-01-05T23:34:50.825Z,2.6
2023-01-05T23:40:14.000Z,2.8
2023-01-05T23:45:21.882Z,3.1
2023-01-05T23:50:13.617Z,3.3
2023-01-05T23:55:38.117Z,3.4
